Time;durP1;ratioP1;P1;durP2;ratioP2;P2;SDS_P1;SDS_P2;PMS_P1;PMS_P2;Temp;Humidity;BMP_temperature;BMP_pressure;BME280_temperature;BME280_humidity;BME280_pressure;Samples;Min_cycle;Max_cycle;Signal;HPM_P1;HPM_P2
2023/10/04 00:00:21;;;;;;;5.20;3.00;;;;;;;16.40;91.83;95074.16;5057453;28;20435;-80
2023/10/04 00:02:51;;;;;;;4.32;2.80;;;;;;;16.56;89.39;95071.28;5059853;28;20025;-81
2023/10/04 00:05:19;;;;;;;11.38;3.75;;;;;;;16.62;89.54;95060.34;5057453;28;20025;-81
2023/10/04 00:07:46;;;;;;;5.32;2.92;;;;;;;16.52;93.51;95079.00;5057337;28;20075;-81
2023/10/04 00:10:12;;;;;;;4.35;2.97;;;;;;;16.34;97.36;95072.66;5051887;28;20036;-81
2023/10/04 00:12:38;;;;;;;6.07;3.00;;;;;;;16.52;96.16;95077.16;5057201;28;20017;-81
2023/10/04 00:15:14;;;;;;;5.22;3.13;;;;;;;16.46;95.80;95080.94;5040586;28;20021;-81
2023/10/04 00:17:42;;;;;;;6.85;3.13;;;;;;;16.14;97.90;95082.44;5039629;28;20377;-81
2023/10/04 00:20:10;;;;;;;7.47;2.75;;;;;;;15.94;98.91;95076.38;5045287;28;20029;-80
2023/10/04 00:22:40;;;;;;;8.82;3.28;;;;;;;15.66;100.00;95084.06;5048799;28;20115;-80
2023/10/04 00:25:11;;;;;;;9.40;3.42;;;;;;;15.39;100.00;95080.13;5055787;28;20067;-80
2023/10/04 00:27:41;;;;;;;5.00;3.00;;;;;;;15.33;100.00;95073.28;5039626;28;20057;-80
2023/10/04 00:30:14;;;;;;;5.05;3.20;;;;;;;15.50;100.00;95077.38;5055309;28;20041;-80
2023/10/04 00:32:41;;;;;;;5.53;3.30;;;;;;;15.64;100.00;95080.91;5055825;28;20024;-80
2023/10/04 00:35:12;;;;;;;4.93;3.15;;;;;;;15.71;100.00;95069.22;5055029;28;20033;-81
2023/10/04 00:37:43;;;;;;;5.35;2.72;;;;;;;15.89;100.00;95068.47;5054943;28;20115;-80
2023/10/04 00:40:13;;;;;;;6.47;3.45;;;;;;;15.63;100.00;95067.97;5054895;28;20033;-80
2023/10/04 00:42:40;;;;;;;12.07;3.47;;;;;;;15.69;100.00;95069.47;5054840;28;20082;-80
2023/10/04 00:45:06;;;;;;;8.90;3.08;;;;;;;15.66;100.00;95068.22;5054894;28;20074;-80
2023/10/04 00:47:32;;;;;;;10.07;3.45;;;;;;;15.74;100.00;95066.00;5055080;28;20040;-80
2023/10/04 00:50:07;;;;;;;4.22;3.10;;;;;;;15.81;100.00;95069.88;5054772;28;20036;-80
2023/10/04 00:52:33;;;;;;;14.00;3.50;;;;;;;15.86;100.00;95066.38;5071440;28;20036;-80
2023/10/04 00:54:58;;;;;;;6.35;3.40;;;;;;;15.84;100.00;95069.28;5071824;28;20077;-80
2023/10/04 00:57:25;;;;;;;6.03;3.28;;;;;;;15.85;100.00;95062.16;5054001;28;20411;-80
2023/10/04 00:59:51;;;;;;;8.63;3.20;;;;;;;15.78;100.00;95053.78;5055896;28;20036;-81
2023/10/04 01:02:16;;;;;;;10.18;3.70;;;;;;;15.83;100.00;95053.75;5037852;28;20445;-81
2023/10/04 01:04:41;;;;;;;8.85;3.53;;;;;;;15.80;100.00;95056.97;5054759;28;20029;-81
2023/10/04 01:07:07;;;;;;;10.85;3.40;;;;;;;15.80;100.00;95056.97;5054353;28;20075;-80
2023/10/04 01:09:32;;;;;;;8.43;3.20;;;;;;;15.76;100.00;95046.16;5055624;28;20094;-80
2023/10/04 01:11:58;;;;;;;5.65;3.55;;;;;;;15.54;100.00;95049.31;5054235;28;20117;-80
2023/10/04 01:14:25;;;;;;;13.23;3.67;;;;;;;15.40;100.00;95049.19;5055430;28;20048;-80
2023/10/04 01:16:52;;;;;;;7.80;4.00;;;;;;;15.45;100.00;95049.16;5037806;28;20401;-80
2023/10/04 01:19:18;;;;;;;7.10;3.67;;;;;;;15.47;100.00;95049.66;5053914;28;20039;-80
2023/10/04 01:21:45;;;;;;;7.15;3.65;;;;;;;15.51;100.00;95049.91;5054162;28;20350;-80
2023/10/04 01:24:11;;;;;;;11.75;4.30;;;;;;;15.55;100.00;95046.38;5055447;28;20028;-80
2023/10/04 01:26:37;;;;;;;6.22;3.70;;;;;;;15.66;100.00;95057.63;5054233;28;20043;-80
2023/10/04 01:29:08;;;;;;;10.93;5.13;;;;;;;15.73;100.00;95057.31;5054173;28;20033;-80
2023/10/04 01:31:34;;;;;;;8.25;3.90;;;;;;;15.78;100.00;95048.50;5054897;28;20056;-80
2023/10/04 01:34:00;;;;;;;10.95;4.40;;;;;;;15.74;100.00;95047.50;5053845;28;20036;-80
2023/10/04 01:36:25;;;;;;;12.73;5.28;;;;;;;15.65;100.00;95057.91;5054080;28;20357;-80
2023/10/04 01:38:52;;;;;;;12.25;5.72;;;;;;;15.58;100.00;95047.69;5053482;28;20028;-80
2023/10/04 01:41:19;;;;;;;14.13;6.38;;;;;;;15.59;100.00;95041.34;5055134;28;20032;-80
2023/10/04 01:43:45;;;;;;;14.82;6.20;;;;;;;15.50;100.00;95048.31;5053896;28;20135;-80
2023/10/04 01:46:12;;;;;;;15.00;5.60;;;;;;;15.51;100.00;95034.81;5053873;28;20033;-81
2023/10/04 01:48:37;;;;;;;11.40;4.72;;;;;;;15.58;100.00;95034.47;5053603;28;20053;-80
2023/10/04 01:51:04;;;;;;;8.23;4.68;;;;;;;15.54;100.00;95036.13;5037041;28;20127;-80
2023/10/04 01:53:29;;;;;;;11.43;5.40;;;;;;;15.44;100.00;95028.31;5037276;28;20040;-80
2023/10/04 01:55:56;;;;;;;11.63;5.53;;;;;;;15.49;100.00;95028.25;5054917;28;20078;-80
2023/10/04 01:58:23;;;;;;;11.88;5.97;;;;;;;15.43;100.00;95032.03;5053420;28;20056;-81
2023/10/04 02:00:58;;;;;;;12.55;5.70;;;;;;;15.38;100.00;95041.56;5070256;28;20033;-80
2023/10/04 02:03:24;;;;;;;13.55;5.47;;;;;;;15.49;100.00;95042.25;5053608;28;20028;-80
2023/10/04 02:05:56;;;;;;;9.90;6.32;;;;;;;15.55;100.00;95041.09;5053670;28;20047;-80
2023/10/04 02:08:22;;;;;;;10.20;6.03;;;;;;;15.60;100.00;95034.97;5053367;28;20036;-80
2023/10/04 02:10:47;;;;;;;10.23;5.68;;;;;;;15.75;100.00;95030.59;5054619;28;20029;-80
2023/10/04 02:13:16;;;;;;;14.75;5.55;;;;;;;15.39;100.00;95031.78;5053207;28;20037;-80
2023/10/04 02:15:43;;;;;;;13.57;6.38;;;;;;;15.55;100.00;95033.19;5053366;28;20029;-80
2023/10/04 02:18:08;;;;;;;10.65;5.60;;;;;;;15.58;100.00;95028.44;5053534;28;20136;-80
2023/10/04 02:20:34;;;;;;;16.23;6.55;;;;;;;15.62;100.00;95030.19;5053207;28;20041;-80
2023/10/04 02:23:07;;;;;;;12.38;6.05;;;;;;;15.58;100.00;95029.19;5053243;28;20074;-80
2023/10/04 02:25:33;;;;;;;10.37;6.10;;;;;;;15.45;100.00;95038.59;5053405;28;20458;-80
2023/10/04 02:28:09;;;;;;;11.05;5.68;;;;;;;15.35;100.00;95028.94;5053121;28;20056;-80
2023/10/04 02:30:34;;;;;;;12.50;5.60;;;;;;;15.33;100.00;95032.91;5053377;28;20752;-81
2023/10/04 02:33:00;;;;;;;12.68;6.43;;;;;;;15.33;100.00;95033.69;5053158;28;20115;-81
2023/10/04 02:35:34;;;;;;;13.30;6.97;;;;;;;15.43;100.00;95024.09;5053240;28;20033;-81
2023/10/04 02:38:00;;;;;;;15.48;6.68;;;;;;;15.65;100.00;95027.00;5053300;28;20051;-80
2023/10/04 02:40:32;;;;;;;17.48;6.70;;;;;;;15.34;100.00;95027.34;5053161;28;20477;-81
2023/10/04 02:42:58;;;;;;;15.10;6.57;;;;;;;15.43;100.00;95027.53;5053782;28;20025;-80
2023/10/04 02:45:24;;;;;;;16.90;7.32;;;;;;;15.38;100.00;95030.22;5053105;28;20067;-80
2023/10/04 02:47:51;;;;;;;21.92;7.25;;;;;;;15.19;100.00;95033.59;5054156;28;20341;-81
2023/10/04 02:50:17;;;;;;;14.57;7.05;;;;;;;15.03;100.00;95032.94;5036471;28;20116;-80
2023/10/04 02:52:44;;;;;;;18.77;7.05;;;;;;;15.10;100.00;95038.69;5052998;28;20036;-80
2023/10/04 02:55:15;;;;;;;11.52;5.72;;;;;;;15.12;100.00;95036.56;5053090;28;20024;-80
2023/10/04 02:57:40;;;;;;;9.70;5.97;;;;;;;15.08;100.00;95034.75;5052928;28;20465;-80
2023/10/04 03:00:11;;;;;;;19.02;6.10;;;;;;;15.15;100.00;95034.41;5053001;28;20029;-80
2023/10/04 03:02:37;;;;;;;12.52;5.90;;;;;;;15.13;100.00;95043.41;5069756;28;20083;-80
2023/10/04 03:05:06;;;;;;;17.50;6.53;;;;;;;15.09;100.00;95034.47;5036650;28;20029;-80
2023/10/04 03:07:33;;;;;;;15.98;6.22;;;;;;;15.07;100.00;95033.97;5052791;28;20033;-80
2023/10/04 03:09:58;;;;;;;13.57;6.63;;;;;;;15.11;100.00;95034.19;5052841;28;20354;-80
2023/10/04 03:12:24;;;;;;;14.02;6.57;;;;;;;15.17;100.00;95037.56;5052762;28;20029;-80
2023/10/04 03:14:50;;;;;;;18.63;7.07;;;;;;;15.15;100.00;95042.34;5052727;28;20029;-80
2023/10/04 03:17:16;;;;;;;11.77;6.28;;;;;;;15.24;100.00;95044.09;5052700;28;20493;-80
2023/10/04 03:19:42;;;;;;;15.00;6.38;;;;;;;15.46;100.00;95049.94;5038602;28;20068;-80
2023/10/04 03:22:08;;;;;;;16.67;5.18;;;;;;;15.09;100.00;95046.88;5056889;28;20597;-80
2023/10/04 03:24:34;;;;;;;10.93;4.90;;;;;;;14.86;100.00;95045.78;5056820;28;20435;-81
2023/10/04 03:26:59;;;;;;;10.85;6.45;;;;;;;15.07;100.00;95046.38;5057472;28;20442;-80
2023/10/04 03:29:25;;;;;;;12.38;5.88;;;;;;;15.08;100.00;95050.59;5056316;28;20028;-80
2023/10/04 03:31:51;;;;;;;7.53;5.30;;;;;;;15.08;100.00;95037.38;5057430;28;20029;-80
2023/10/04 03:34:17;;;;;;;9.68;6.07;;;;;;;15.00;100.00;95048.56;5039795;28;20384;-80
2023/10/04 03:36:46;;;;;;;10.82;5.97;;;;;;;14.91;100.00;95053.63;5039755;28;20052;-80
2023/10/04 03:39:12;;;;;;;13.25;6.20;;;;;;;14.70;100.00;95044.03;5056105;28;20025;-80
2023/10/04 03:41:38;;;;;;;9.63;5.97;;;;;;;14.60;100.00;95048.59;5056241;28;20039;-81
2023/10/04 03:44:05;;;;;;;11.77;6.30;;;;;;;14.58;100.00;95046.25;5055950;28;20025;-80
2023/10/04 03:46:31;;;;;;;9.18;5.72;;;;;;;14.74;100.00;95054.06;5055479;28;20338;-80
2023/10/04 03:48:58;;;;;;;9.13;5.60;;;;;;;14.73;100.00;95049.84;5050985;28;20037;-81
2023/10/04 03:51:24;;;;;;;13.40;7.03;;;;;;;14.70;100.00;95053.78;5056092;28;20025;-80
2023/10/04 03:53:53;;;;;;;14.82;6.18;;;;;;;14.71;100.00;95055.34;5055903;28;20320;-80
2023/10/04 03:56:21;;;;;;;10.90;5.53;;;;;;;14.75;100.00;95055.63;5055796;28;20029;-80
2023/10/04 03:58:48;;;;;;;14.23;7.30;;;;;;;14.86;100.00;95056.31;5055577;28;20102;-80
2023/10/04 04:01:14;;;;;;;12.40;6.78;;;;;;;14.79;100.00;95057.44;5056794;28;20032;-81
2023/10/04 04:03:40;;;;;;;12.85;6.40;;;;;;;14.77;100.00;95054.28;5055327;28;20035;-80
2023/10/04 04:06:06;;;;;;;13.65;6.65;;;;;;;14.80;100.00;95052.94;5056504;28;20575;-80
2023/10/04 04:08:31;;;;;;;11.38;6.03;;;;;;;14.49;100.00;95063.69;5057379;28;20036;-80
2023/10/04 04:10:57;;;;;;;13.18;6.63;;;;;;;14.37;100.00;95064.06;5058695;28;20082;-80
2023/10/04 04:13:23;;;;;;;16.98;6.20;;;;;;;14.49;100.00;95066.34;5040917;28;20136;-80
2023/10/04 04:15:50;;;;;;;18.90;6.88;;;;;;;14.45;100.00;95071.38;5058561;28;20342;-80
2023/10/04 04:20:46;;;;;;;16.00;6.18;;;;;;;14.37;100.00;95061.41;5037491;28;20506;-81
2023/10/04 04:23:12;;;;;;;17.35;6.97;;;;;;;14.43;100.00;95068.22;5038578;28;20017;-81
2023/10/04 04:25:38;;;;;;;9.75;5.97;;;;;;;14.42;100.00;95078.00;5047437;28;20063;-81
2023/10/04 04:28:04;;;;;;;11.20;6.32;;;;;;;14.38;100.00;95073.53;5056836;28;20060;-81
2023/10/04 04:30:31;;;;;;;13.55;5.95;;;;;;;14.46;100.00;95083.47;5055811;28;20343;-81
2023/10/04 04:32:57;;;;;;;13.75;5.70;;;;;;;14.39;100.00;95078.50;5056957;28;20040;-81
2023/10/04 04:38:09;;;;;;;12.00;5.22;;;;;;;14.47;100.00;95095.59;5054447;28;20028;-81
2023/10/04 04:40:35;;;;;;;12.57;5.38;;;;;;;14.58;100.00;95091.06;5021854;28;20021;-81
2023/10/04 04:43:18;;;;;;;8.82;5.80;;;;;;;14.65;100.00;95086.25;5049329;28;20028;-81
2023/10/04 04:45:51;;;;;;;13.05;6.10;;;;;;;14.61;100.00;95087.06;5058001;28;20111;-81
2023/10/04 04:48:25;;;;;;;12.82;6.60;;;;;;;14.44;100.00;95092.75;5056634;28;20025;-81
2023/10/04 04:50:54;;;;;;;9.30;5.28;;;;;;;14.54;100.00;95090.81;5056755;28;20024;-81
2023/10/04 04:53:27;;;;;;;10.90;5.75;;;;;;;14.61;100.00;95092.34;5056257;28;20032;-79
2023/10/04 04:55:55;;;;;;;9.88;6.20;;;;;;;14.59;100.00;95092.63;5038160;28;20032;-79
2023/10/04 04:58:25;;;;;;;13.68;6.32;;;;;;;14.46;100.00;95096.66;5057668;28;20016;-79
2023/10/04 05:00:55;;;;;;;10.15;5.78;;;;;;;14.33;100.00;95092.78;5057426;28;20114;-79
2023/10/04 05:03:21;;;;;;;16.95;6.78;;;;;;;14.33;100.00;95098.06;5056726;28;20400;-79
2023/10/04 05:05:49;;;;;;;10.63;5.93;;;;;;;14.26;100.00;95094.94;5040109;28;20029;-79
2023/10/04 05:08:18;;;;;;;20.77;6.30;;;;;;;14.19;100.00;95097.88;5056374;28;20139;-79
2023/10/04 05:10:45;;;;;;;11.65;6.00;;;;;;;13.94;100.00;95104.06;5037920;28;20426;-79
2023/10/04 05:13:13;;;;;;;12.10;6.28;;;;;;;13.95;100.00;95103.78;5038473;28;20033;-79
2023/10/04 05:15:42;;;;;;;14.38;6.25;;;;;;;13.99;100.00;95094.28;5057709;28;20083;-79
2023/10/04 05:18:11;;;;;;;11.65;6.45;;;;;;;13.98;100.00;95105.09;5056214;28;20124;-79
2023/10/04 05:20:38;;;;;;;14.25;6.13;;;;;;;14.13;100.00;95105.03;5056052;28;20434;-79
2023/10/04 05:23:05;;;;;;;13.45;5.10;;;;;;;14.26;100.00;95108.91;5040139;28;20131;-79
2023/10/04 05:25:31;;;;;;;13.32;5.40;;;;;;;14.28;100.00;95113.94;5047719;28;20033;-79
2023/10/04 05:28:09;;;;;;;10.65;5.38;;;;;;;14.30;100.00;95118.91;5042796;28;20029;-79
2023/10/04 05:30:37;;;;;;;10.75;5.53;;;;;;;14.39;100.00;95125.19;5056151;28;20346;-79
2023/10/04 05:33:03;;;;;;;9.70;5.38;;;;;;;14.46;100.00;95130.16;5055570;28;20063;-79
2023/10/04 05:35:29;;;;;;;9.15;5.13;;;;;;;14.66;100.00;95121.34;5054757;28;20029;-79
2023/10/04 05:37:54;;;;;;;8.40;5.30;;;;;;;14.63;100.00;95119.22;5040682;28;20461;-79
2023/10/04 05:40:25;;;;;;;8.80;5.80;;;;;;;14.63;100.00;95127.13;5036837;28;20044;-79
2023/10/04 05:42:53;;;;;;;7.97;5.22;;;;;;;14.63;100.00;95127.13;5036662;28;20434;-79
2023/10/04 05:45:22;;;;;;;10.95;5.07;;;;;;;14.79;100.00;95131.31;5039313;28;20059;-79
2023/10/04 05:47:51;;;;;;;10.38;5.35;;;;;;;14.96;100.00;95138.03;5056271;28;20462;-78
2023/10/04 05:50:22;;;;;;;10.10;5.45;;;;;;;15.03;100.00;95143.78;5055431;28;20028;-79
2023/10/04 05:52:50;;;;;;;9.00;5.38;;;;;;;15.11;100.00;95134.47;5055557;28;20430;-79
2023/10/04 05:55:20;;;;;;;11.65;5.80;;;;;;;15.30;100.00;95139.09;5055263;28;20025;-79
2023/10/04 05:57:47;;;;;;;15.88;5.65;;;;;;;15.41;100.00;95144.00;5055309;28;20449;-79
2023/10/04 06:03:06;;;;;;;10.27;5.82;;;;;;;15.62;100.00;95151.69;5055457;28;20464;-79
2023/10/04 06:05:35;;;;;;;12.45;6.35;;;;;;;15.60;100.00;95145.91;5056544;28;20025;-79
2023/10/04 06:08:06;;;;;;;15.23;6.15;;;;;;;15.04;100.00;95153.25;5055408;28;20029;-79
2023/10/04 06:10:32;;;;;;;12.48;5.65;;;;;;;15.01;100.00;95151.19;5056655;28;20031;-79
2023/10/04 06:12:58;;;;;;;7.53;5.30;;;;;;;15.55;100.00;95152.03;5038982;28;20123;-79
2023/10/04 06:15:25;;;;;;;8.90;5.20;;;;;;;15.74;100.00;95146.06;5055434;28;20116;-79
2023/10/04 06:17:54;;;;;;;12.20;5.35;;;;;;;15.84;100.00;95153.06;5055035;28;20025;-79
2023/10/04 06:20:28;;;;;;;10.13;5.50;;;;;;;16.00;100.00;95152.94;5056275;28;20029;-79
2023/10/04 06:23:00;;;;;;;11.20;5.47;;;;;;;16.06;100.00;95155.22;5056508;28;20025;-79
2023/10/04 06:25:30;;;;;;;18.00;5.65;;;;;;;15.76;100.00;95166.88;5050532;28;20033;-79
2023/10/04 06:27:57;;;;;;;7.43;4.90;;;;;;;15.76;100.00;95164.25;5055080;28;20029;-79
2023/10/04 06:30:28;;;;;;;9.15;4.82;;;;;;;16.02;100.00;95166.66;5054432;28;20048;-79
2023/10/04 06:32:55;;;;;;;8.13;5.15;;;;;;;16.35;100.00;95166.78;5052312;28;20033;-79
2023/10/04 06:35:24;;;;;;;11.98;5.32;;;;;;;16.47;100.00;95172.44;5048536;28;20060;-79
2023/10/04 06:37:54;;;;;;;11.02;5.55;;;;;;;16.54;100.00;95172.88;5036020;28;20029;-79
2023/10/04 06:40:21;;;;;;;8.43;5.38;;;;;;;16.50;100.00;95174.53;5034821;28;20450;-79
2023/10/04 06:42:50;;;;;;;11.82;5.57;;;;;;;16.52;100.00;95175.03;5051712;28;20075;-79
2023/10/04 06:45:18;;;;;;;11.90;5.47;;;;;;;16.61;100.00;95187.59;5051989;28;20026;-79
2023/10/04 06:47:46;;;;;;;9.75;5.70;;;;;;;16.72;100.00;95183.75;5035929;28;20021;-79
2023/10/04 06:50:18;;;;;;;12.55;5.93;;;;;;;16.56;100.00;95185.81;5035121;28;20055;-79
2023/10/04 06:52:48;;;;;;;9.15;6.13;;;;;;;17.03;100.00;95185.22;5051469;28;20026;-79
2023/10/04 06:55:20;;;;;;;8.50;5.57;;;;;;;17.11;100.00;95192.50;5054174;28;20030;-79
2023/10/04 06:57:47;;;;;;;9.90;5.55;;;;;;;17.26;100.00;95194.13;5038805;28;20129;-79
2023/10/04 07:00:15;;;;;;;9.85;5.75;;;;;;;17.44;100.00;95197.81;5055443;28;20112;-79
2023/10/04 07:02:53;;;;;;;13.85;5.85;;;;;;;17.38;100.00;95201.59;5055544;28;20064;-79
2023/10/04 07:05:24;;;;;;;8.75;5.90;;;;;;;17.63;100.00;95192.44;5039658;28;20080;-79
2023/10/04 07:07:54;;;;;;;12.73;5.65;;;;;;;17.87;100.00;95196.78;5038547;28;20107;-79
2023/10/04 07:10:23;;;;;;;8.07;5.78;;;;;;;18.08;100.00;95204.41;5038844;28;20116;-79
2023/10/04 07:12:52;;;;;;;13.10;6.15;;;;;;;17.65;100.00;95194.81;5038772;28;20433;-79
2023/10/04 07:15:20;;;;;;;17.23;6.40;;;;;;;17.82;100.00;95202.19;5055418;28;20048;-80
2023/10/04 07:17:50;;;;;;;9.05;5.13;;;;;;;18.01;100.00;95198.69;5038459;28;20053;-79
2023/10/04 07:20:17;;;;;;;12.27;5.40;;;;;;;18.27;100.00;95208.84;5038770;28;20037;-80
2023/10/04 07:22:48;;;;;;;10.65;5.45;;;;;;;18.29;100.00;95215.41;5038653;28;20446;-79
2023/10/04 07:25:16;;;;;;;12.77;5.35;;;;;;;18.04;100.00;95214.81;5022845;28;20021;-80
2023/10/04 07:27:43;;;;;;;11.32;5.25;;;;;;;18.09;100.00;95211.28;5038132;28;20026;-79
2023/10/04 07:30:12;;;;;;;11.05;5.10;;;;;;;17.97;100.00;95216.25;5055102;28;20022;-79
2023/10/04 07:32:49;;;;;;;10.85;5.20;;;;;;;18.08;100.00;95221.09;5055155;28;20140;-80
2023/10/04 07:35:27;;;;;;;10.15;5.60;;;;;;;18.29;100.00;95226.03;5038233;28;20029;-80
2023/10/04 07:37:55;;;;;;;8.23;5.00;;;;;;;18.68;100.00;95223.94;5022920;28;20036;-79
2023/10/04 07:40:23;;;;;;;7.40;5.53;;;;;;;18.32;100.00;95232.59;5038319;28;20079;-79
2023/10/04 07:42:53;;;;;;;12.05;5.57;;;;;;;18.44;100.00;95235.53;5022157;28;20068;-80
2023/10/04 07:45:21;;;;;;;11.75;5.78;;;;;;;18.48;100.00;95239.16;5054321;28;20033;-80
2023/10/04 07:47:46;;;;;;;9.90;4.93;;;;;;;18.62;100.00;95236.50;5037785;28;20366;-80
2023/10/04 07:50:22;;;;;;;10.05;4.93;;;;;;;18.75;100.00;95239.44;5039404;28;20036;-80
2023/10/04 07:52:47;;;;;;;8.85;5.35;;;;;;;18.56;100.00;95235.03;5037924;28;20124;-80
2023/10/04 07:55:18;;;;;;;12.05;5.15;;;;;;;18.77;100.00;95235.38;5054420;28;20117;-80
2023/10/04 07:57:48;;;;;;;11.40;5.75;;;;;;;18.75;100.00;95242.88;5038923;28;20021;-80
2023/10/04 08:00:17;;;;;;;9.57;5.10;;;;;;;18.81;100.00;95250.75;5037993;28;20032;-79
2023/10/04 08:02:51;;;;;;;8.38;5.20;;;;;;;18.92;100.00;95260.03;5054771;28;20079;-79
2023/10/04 08:05:26;;;;;;;9.38;5.18;;;;;;;18.95;100.00;95259.47;5038894;28;20033;-79
2023/10/04 08:07:56;;;;;;;14.25;5.53;;;;;;;19.20;100.00;95263.44;5054487;28;20064;-80
2023/10/04 08:10:25;;;;;;;8.13;4.65;;;;;;;19.40;100.00;95269.38;5054088;28;20030;-79
2023/10/04 08:12:54;;;;;;;8.85;5.00;;;;;;;19.94;100.00;95270.53;5037721;28;20037;-79
2023/10/04 08:15:28;;;;;;;10.85;5.43;;;;;;;20.31;100.00;95261.31;5021566;28;20026;-80
2023/10/04 08:17:56;;;;;;;9.30;5.63;;;;;;;20.59;100.00;95269.09;5036903;28;20021;-79
2023/10/04 08:20:26;;;;;;;9.45;5.20;;;;;;;20.68;100.00;95271.78;5037757;28;20030;-80
2023/10/04 08:22:51;;;;;;;8.80;5.00;;;;;;;20.83;100.00;95275.13;5053862;28;20030;-81
2023/10/04 08:25:21;;;;;;;7.18;4.72;;;;;;;21.07;100.00;95276.53;5020951;28;20025;-80
2023/10/04 08:27:49;;;;;;;13.60;5.35;;;;;;;21.10;100.00;95278.59;5037293;28;20060;-80
2023/10/04 08:30:18;;;;;;;13.40;6.78;;;;;;;20.90;100.00;95278.09;5038304;28;20323;-80
2023/10/04 08:32:49;;;;;;;12.55;6.72;;;;;;;21.14;100.00;95276.88;5053579;28;20026;-80
2023/10/04 08:35:23;;;;;;;14.30;7.03;;;;;;;20.99;100.00;95278.91;5037399;28;20493;-80
2023/10/04 08:37:57;;;;;;;13.90;6.88;;;;;;;21.29;100.00;95278.28;5037159;28;20025;-79
2023/10/04 08:40:27;;;;;;;13.15;7.53;;;;;;;21.67;100.00;95282.25;5040303;28;20021;-80
2023/10/04 08:42:55;;;;;;;15.35;9.48;;;;;;;21.45;100.00;95281.28;5025571;28;20025;-80
2023/10/04 08:45:24;;;;;;;15.32;8.70;;;;;;;21.80;100.00;95277.81;5053715;28;20033;-80
2023/10/04 08:47:56;;;;;;;18.35;9.55;;;;;;;21.99;100.00;95280.13;5020309;28;20033;-80
2023/10/04 08:50:36;;;;;;;24.83;13.57;;;;;;;21.77;100.00;95270.44;5020453;28;20072;-80
2023/10/04 08:53:04;;;;;;;28.50;15.88;;;;;;;21.18;100.00;95272.50;5037929;28;20443;-80
2023/10/04 08:55:41;;;;;;;25.55;14.38;;;;;;;21.87;100.00;95280.75;5036611;28;20033;-81
2023/10/04 08:58:10;;;;;;;19.75;12.15;;;;;;;21.81;100.00;95269.50;5020228;28;20339;-80
2023/10/04 09:00:37;;;;;;;23.80;13.50;;;;;;;21.44;100.00;95277.81;5053042;28;20033;-80
2023/10/04 09:03:07;;;;;;;19.73;11.65;;;;;;;21.68;100.00;95275.81;5053248;28;20116;-80
2023/10/04 09:05:33;;;;;;;26.58;16.38;;;;;;;21.19;100.00;95280.19;5036705;28;20091;-80
2023/10/04 09:08:01;;;;;;;31.88;19.05;;;;;;;21.16;100.00;95280.00;5036474;28;20427;-80
2023/10/04 09:10:32;;;;;;;23.48;15.98;;;;;;;20.95;100.00;95285.97;5036448;28;20033;-80
2023/10/04 09:13:03;;;;;;;23.45;14.85;;;;;;;21.41;100.00;95280.34;5036317;28;20120;-80
2023/10/04 09:15:31;;;;;;;30.42;17.95;;;;;;;21.47;100.00;95282.53;5036260;28;20080;-81
2023/10/04 09:18:02;;;;;;;36.90;21.98;;;;;;;21.86;100.00;95288.00;5018964;28;20037;-80
2023/10/04 09:20:32;;;;;;;30.50;19.63;;;;;;;22.44;100.00;95292.19;5036093;28;20103;-80
2023/10/04 09:23:03;;;;;;;36.35;21.40;;;;;;;22.43;100.00;95295.97;5036106;28;20025;-81
2023/10/04 09:25:36;;;;;;;37.55;21.95;;;;;;;22.43;100.00;95290.63;5036377;28;20033;-80
2023/10/04 09:28:04;;;;;;;31.38;19.92;;;;;;;22.25;100.00;95284.59;5035926;28;20041;-80
2023/10/04 09:30:34;;;;;;;43.22;21.13;;;;;;;22.32;100.00;95290.22;5035722;28;20442;-81
2023/10/04 09:33:02;;;;;;;34.40;20.58;;;;;;;22.73;100.00;95283.47;5019851;28;20033;-80
2023/10/04 09:35:48;;;;;;;26.45;15.52;;;;;;;22.84;100.00;95283.09;5035817;28;20033;-81
2023/10/04 09:38:17;;;;;;;29.92;18.52;;;;;;;22.59;100.00;95278.38;5035753;28;20021;-80
2023/10/04 09:40:50;;;;;;;30.77;17.45;;;;;;;23.21;100.00;95277.19;5036005;28;20035;-80
2023/10/04 09:43:18;;;;;;;27.70;14.93;;;;;;;23.26;100.00;95282.34;5035844;28;20124;-81
2023/10/04 09:45:56;;;;;;;27.02;16.98;;;;;;;23.39;100.00;95275.22;5019073;28;20067;-80
2023/10/04 09:48:25;;;;;;;39.33;23.63;;;;;;;23.41;99.98;95272.97;5036788;28;20036;-80
2023/10/04 09:51:00;;;;;;;45.67;25.85;;;;;;;22.90;100.00;95270.34;5036292;28;20084;-80
2023/10/04 09:53:26;;;;;;;38.83;22.50;;;;;;;22.85;100.00;95258.72;5052356;28;20382;-81
2023/10/04 09:55:53;;;;;;;43.05;25.63;;;;;;;22.95;100.00;95267.47;5045100;28;20032;-80
2023/10/04 09:58:27;;;;;;;34.55;22.77;;;;;;;23.14;100.00;95269.69;5038773;28;20028;-80
2023/10/04 10:00:55;;;;;;;;;;;;;;;23.08;97.83;95268.31;5055945;28;20028;-80
2023/10/04 10:03:26;;;;;;;44.15;27.42;;;;;;;22.91;96.78;95266.56;5055199;28;19912;-80
2023/10/04 10:05:56;;;;;;;36.15;23.63;;;;;;;23.34;95.44;95262.03;5072028;28;20438;-80
2023/10/04 10:08:25;;;;;;;39.80;22.55;;;;;;;23.44;94.14;95264.31;5055389;28;20060;-80
2023/10/04 10:10:52;;;;;;;51.95;30.10;;;;;;;23.01;91.78;95260.81;5055435;28;20082;-80
2023/10/04 10:13:22;;;;;;;53.63;32.22;;;;;;;22.95;92.11;95259.44;5055231;28;20431;-80
2023/10/04 10:15:53;;;;;;;43.00;25.92;;;;;;;23.15;90.11;95272.03;5055299;28;20036;-80
2023/10/04 10:18:21;;;;;;;36.28;23.73;;;;;;;23.00;89.08;95264.59;5055045;28;20025;-80
2023/10/04 10:20:47;;;;;;;34.00;20.35;;;;;;;23.49;88.88;95266.75;5056345;28;20495;-80
2023/10/04 10:23:16;;;;;;;33.90;20.95;;;;;;;23.98;85.69;95268.03;5055038;28;20430;-80
2023/10/04 10:26:19;;;;;;;29.83;17.65;;;;;;;24.27;80.87;95266.34;5055287;28;20025;-80
2023/10/04 10:28:47;;;;;;;29.57;18.20;;;;;;;24.11;79.88;95266.97;5055594;28;20029;-80
2023/10/04 10:31:25;;;;;;;32.47;19.17;;;;;;;23.55;81.72;95260.13;5059216;28;20056;-80
2023/10/04 10:33:53;;;;;;;32.08;17.80;;;;;;;23.33;83.44;95258.56;5059423;28;20060;-80
2023/10/04 10:36:23;;;;;;;31.05;17.20;;;;;;;23.29;84.18;95257.66;5059166;28;20052;-80
2023/10/04 10:38:54;;;;;;;28.38;17.70;;;;;;;22.87;82.94;95261.06;5059064;28;20029;-80
2023/10/04 10:41:32;;;;;;;29.90;17.35;;;;;;;22.21;90.54;95262.31;5042795;28;20033;-80
2023/10/04 10:44:30;;;;;;;27.75;16.25;;;;;;;22.65;89.81;95260.25;5060190;28;20334;-80
2023/10/04 10:47:08;;;;;;;27.42;15.00;;;;;;;23.10;85.66;95256.19;5060190;28;20029;-80
2023/10/04 10:49:40;;;;;;;32.70;15.50;;;;;;;23.01;84.48;95255.47;5058892;28;20033;-80
2023/10/04 10:52:13;;;;;;;27.98;15.55;;;;;;;22.97;85.39;95258.03;5058888;28;20060;-81
2023/10/04 10:54:41;;;;;;;29.30;14.90;;;;;;;23.11;86.42;95254.31;5058623;28;20115;-81
2023/10/04 10:57:07;;;;;;;28.65;15.50;;;;;;;23.30;83.86;95251.19;5058699;28;20037;-81
2023/10/04 10:59:36;;;;;;;23.17;14.60;;;;;;;23.39;83.52;95253.81;5058947;28;20082;-80
2023/10/04 11:02:07;;;;;;;25.95;14.35;;;;;;;23.38;82.30;95254.91;5058763;28;20108;-80
2023/10/04 11:04:34;;;;;;;20.13;12.00;;;;;;;23.65;81.74;95256.25;5058749;28;20071;-81
2023/10/04 11:07:01;;;;;;;31.63;15.18;;;;;;;23.44;82.96;95251.69;5058479;28;20029;-81
2023/10/04 11:09:35;;;;;;;22.17;13.00;;;;;;;23.60;83.31;95263.69;5059861;28;20131;-81
2023/10/04 11:12:09;;;;;;;21.95;12.40;;;;;;;23.84;81.22;95268.31;5058519;28;20044;-80
2023/10/04 11:14:40;;;;;;;21.83;13.82;;;;;;;23.94;79.63;95264.44;5059039;28;20101;-81
2023/10/04 11:17:10;;;;;;;31.65;12.55;;;;;;;23.65;81.25;95263.47;5058318;28;20032;-80
2023/10/04 11:19:38;;;;;;;24.90;14.73;;;;;;;23.75;80.30;95257.72;5058318;28;20028;-80
2023/10/04 11:22:06;;;;;;;21.15;14.13;;;;;;;23.80;78.37;95254.81;5058374;28;20092;-80
2023/10/04 11:24:33;;;;;;;16.70;11.90;;;;;;;24.37;76.16;95263.19;5058318;28;20373;-80
2023/10/04 11:27:01;;;;;;;29.45;14.38;;;;;;;23.77;78.19;95258.16;5041335;28;20037;-81
2023/10/04 11:29:29;;;;;;;26.20;15.30;;;;;;;23.42;79.17;95250.47;5058016;28;20033;-81
2023/10/04 11:32:01;;;;;;;21.88;13.45;;;;;;;24.08;79.38;95250.81;5058163;28;20036;-80
2023/10/04 11:34:30;;;;;;;20.70;12.98;;;;;;;24.16;77.42;95239.19;5058204;28;20040;-81